createdAt,value
2019-05-09T00:02:17.862Z,60.80
2019-05-09T00:04:47.092Z,60.68
2019-05-09T00:07:16.340Z,60.55
2019-05-09T00:09:45.668Z,60.46
2019-05-09T00:12:15.160Z,60.42
2019-05-09T00:14:44.487Z,60.38
2019-05-09T00:17:14.227Z,60.35
2019-05-09T00:19:44.025Z,60.42
2019-05-09T00:22:13.829Z,60.38
2019-05-09T00:24:44.742Z,60.37
2019-05-09T00:27:14.378Z,60.30
2019-05-09T00:29:46.706Z,60.20
2019-05-09T00:32:28.084Z,60.11
2019-05-09T00:35:28.436Z,60.00
2019-05-09T00:38:08.427Z,59.78
2019-05-09T00:40:51.611Z,59.49
2019-05-09T00:43:08.912Z,59.24
2019-05-09T00:46:06.207Z,59.16
2019-05-09T00:48:57.416Z,59.08
2019-05-09T00:51:27.095Z,58.91
2019-05-09T00:53:56.426Z,58.86
2019-05-09T00:56:25.634Z,58.95
2019-05-09T00:58:54.989Z,59.01
2019-05-09T01:01:24.325Z,59.14
2019-05-09T01:03:53.858Z,59.25
2019-05-09T01:06:24.131Z,59.32
2019-05-09T01:08:53.894Z,59.35
2019-05-09T01:11:24.391Z,59.38
2019-05-09T01:13:54.571Z,59.25
2019-05-09T01:16:24.248Z,59.19
2019-05-09T01:18:54.624Z,58.99
2019-05-09T01:21:24.371Z,58.88
2019-05-09T01:23:54.147Z,58.72
2019-05-09T01:26:24.231Z,58.63
2019-05-09T01:28:54.270Z,58.55
2019-05-09T01:31:24.472Z,58.50
2019-05-09T01:34:13.405Z,58.50
2019-05-09T01:37:00.292Z,58.43
2019-05-09T01:39:29.972Z,58.37
2019-05-09T01:41:59.221Z,58.35
2019-05-09T01:44:28.916Z,58.39
2019-05-09T01:46:58.381Z,58.44
2019-05-09T01:49:27.607Z,58.52
2019-05-09T01:51:56.831Z,58.59
2019-05-09T01:54:27.923Z,58.65
2019-05-09T01:56:57.221Z,58.66
2019-05-09T01:59:26.753Z,58.67
2019-05-09T02:01:56.329Z,58.72
2019-05-09T02:04:25.540Z,58.73
2019-05-09T02:06:54.756Z,58.76
2019-05-09T02:09:24.142Z,58.83
2019-05-09T02:11:54.498Z,58.94
2019-05-09T02:14:34.374Z,59.05
2019-05-09T02:17:28.512Z,59.11
2019-05-09T02:19:57.983Z,59.13
2019-05-09T02:22:36.842Z,59.17
2019-05-09T02:25:07.660Z,59.34
2019-05-09T02:27:37.064Z,59.38
2019-05-09T02:30:08.125Z,59.51
2019-05-09T02:32:37.393Z,59.58
2019-05-09T02:35:07.420Z,59.62
2019-05-09T02:37:38.950Z,59.71
2019-05-09T02:40:10.201Z,59.75
2019-05-09T02:42:40.250Z,59.85
2019-05-09T02:45:10.403Z,59.89
2019-05-09T02:47:39.719Z,59.94
2019-05-09T02:50:10.205Z,60.05
2019-05-09T02:52:39.999Z,60.11
2019-05-09T02:55:10.874Z,60.22
2019-05-09T02:57:40.325Z,60.25
2019-05-09T03:00:29.023Z,60.30
2019-05-09T03:03:03.847Z,60.36
2019-05-09T03:05:33.082Z,60.33
2019-05-09T03:08:02.321Z,60.40
2019-05-09T03:10:31.715Z,60.49
2019-05-09T03:13:00.958Z,60.51
2019-05-09T03:15:30.168Z,60.51
2019-05-09T03:18:00.186Z,60.58
2019-05-09T03:20:49.198Z,60.58
2019-05-09T03:23:20.946Z,60.60
2019-05-09T03:25:50.194Z,60.47
2019-05-09T03:28:49.215Z,60.48
2019-05-09T03:31:20.482Z,60.44
2019-05-09T03:33:50.387Z,60.31
2019-05-09T03:36:20.053Z,60.24
2019-05-09T03:38:49.314Z,60.22
2019-05-09T03:41:19.722Z,60.20
2019-05-09T03:43:48.944Z,60.15
2019-05-09T03:46:35.129Z,60.07
2019-05-09T03:49:07.406Z,59.95
2019-05-09T03:51:37.921Z,59.82
2019-05-09T03:54:08.034Z,59.72
2019-05-09T03:56:41.802Z,59.66
2019-05-09T03:59:11.012Z,59.62
2019-05-09T04:01:40.321Z,59.52
2019-05-09T04:04:09.692Z,59.43
2019-05-09T04:06:39.299Z,59.38
2019-05-09T04:09:08.858Z,59.30
2019-05-09T04:11:38.322Z,59.17
2019-05-09T04:14:11.060Z,59.08
2019-05-09T04:16:40.952Z,59.04
2019-05-09T04:19:10.226Z,58.97
2019-05-09T04:21:39.461Z,58.83
2019-05-09T04:24:08.901Z,58.77
2019-05-09T04:26:59.908Z,58.68
2019-05-09T04:29:29.468Z,58.59
2019-05-09T04:31:58.684Z,58.48
2019-05-09T04:34:27.891Z,58.40
2019-05-09T04:36:57.772Z,58.33
2019-05-09T04:39:28.328Z,58.34
2019-05-09T04:42:03.647Z,58.32
2019-05-09T04:44:37.470Z,58.25
2019-05-09T04:47:08.731Z,58.26
2019-05-09T04:49:40.859Z,58.24
2019-05-09T04:52:08.858Z,58.22
2019-05-09T04:54:38.538Z,58.17
2019-05-09T04:57:08.111Z,58.17
2019-05-09T04:59:37.556Z,58.11
2019-05-09T05:02:22.661Z,58.15
2019-05-09T05:04:51.907Z,58.17
2019-05-09T05:07:21.125Z,58.12
2019-05-09T05:09:50.516Z,58.03
2019-05-09T05:12:19.776Z,58.05
2019-05-09T05:14:48.991Z,58.11
2019-05-09T05:17:18.371Z,58.09
2019-05-09T05:19:47.857Z,58.02
2019-05-09T05:22:22.882Z,57.99
2019-05-09T05:24:59.689Z,58.07
2019-05-09T05:27:28.916Z,58.09
2019-05-09T05:29:58.488Z,58.07
2019-05-09T05:32:33.993Z,58.04
2019-05-09T05:35:40.320Z,57.99
2019-05-09T05:38:09.859Z,57.86
2019-05-09T05:40:45.441Z,57.66
2019-05-09T05:43:10.068Z,57.59
2019-05-09T05:45:54.858Z,57.51
2019-05-09T05:48:27.987Z,57.29
2019-05-09T05:50:57.867Z,57.29
2019-05-09T05:53:27.725Z,57.26
2019-05-09T05:55:58.055Z,57.11
2019-05-09T05:58:28.334Z,56.80
2019-05-09T06:00:58.871Z,56.72
2019-05-09T06:03:28.424Z,56.51
2019-05-09T06:05:58.576Z,56.40
2019-05-09T06:08:28.172Z,56.29
2019-05-09T06:10:57.816Z,56.14
2019-05-09T06:13:27.645Z,55.96
2019-05-09T06:15:58.692Z,55.70
2019-05-09T06:18:28.365Z,55.32
2019-05-09T06:20:58.364Z,55.04
2019-05-09T06:23:28.328Z,54.67
2019-05-09T06:25:58.925Z,54.60
2019-05-09T06:28:28.220Z,54.56
2019-05-09T06:30:58.514Z,54.24
2019-05-09T06:33:28.709Z,54.14
2019-05-09T06:35:58.886Z,54.10
2019-05-09T06:38:28.497Z,53.98
2019-05-09T06:40:58.411Z,53.83
2019-05-09T06:43:30.100Z,53.78
2019-05-09T06:46:24.554Z,53.72
2019-05-09T06:49:17.893Z,53.50
2019-05-09T06:51:27.692Z,53.42
2019-05-09T06:53:58.485Z,53.38
2019-05-09T06:56:28.412Z,53.21
2019-05-09T06:58:58.411Z,53.16
2019-05-09T07:01:37.623Z,53.19
2019-05-09T07:04:15.418Z,53.22
2019-05-09T07:06:51.378Z,53.09
2019-05-09T07:09:42.591Z,53.08
2019-05-09T07:12:12.138Z,52.97
2019-05-09T07:14:41.939Z,52.89
2019-05-09T07:17:11.620Z,52.75
2019-05-09T07:19:43.705Z,52.64
2019-05-09T07:22:39.272Z,52.44
2019-05-09T07:25:23.792Z,52.41
2019-05-09T07:27:53.208Z,52.33
2019-05-09T07:30:44.675Z,52.06
2019-05-09T07:33:42.335Z,51.94
2019-05-09T07:36:11.870Z,51.79
2019-05-09T07:38:41.109Z,51.84
2019-05-09T07:41:10.342Z,51.81
2019-05-09T07:43:39.880Z,51.74
2019-05-09T07:46:28.655Z,51.59
2019-05-09T07:48:58.388Z,51.57
2019-05-09T07:51:27.721Z,51.46
2019-05-09T07:53:58.986Z,51.22
2019-05-09T07:56:28.568Z,51.12
2019-05-09T07:58:58.607Z,50.91
2019-05-09T08:01:28.338Z,50.72
2019-05-09T08:03:59.086Z,50.73
2019-05-09T08:06:28.892Z,50.48
2019-05-09T08:08:58.551Z,50.29
2019-05-09T08:11:31.915Z,50.13
2019-05-09T08:13:59.652Z,49.96
2019-05-09T08:16:28.979Z,49.66
2019-05-09T08:18:58.321Z,49.46
2019-05-09T08:21:27.920Z,49.08
2019-05-09T08:23:58.067Z,48.70
2019-05-09T08:26:29.981Z,48.31
2019-05-09T08:28:58.729Z,48.09
2019-05-09T08:31:28.305Z,47.84
2019-05-09T08:33:59.317Z,47.94
2019-05-09T08:36:28.823Z,47.75
2019-05-09T08:38:58.824Z,47.57
2019-05-09T08:41:29.295Z,47.32
2019-05-09T08:43:58.964Z,47.12
2019-05-09T08:46:28.780Z,46.60
2019-05-09T08:48:58.454Z,46.36
2019-05-09T08:52:09.041Z,46.05
2019-05-09T08:54:41.030Z,45.97
2019-05-09T08:57:10.266Z,46.23
2019-05-09T08:59:39.569Z,46.27
2019-05-09T09:02:15.867Z,46.19
2019-05-09T09:04:40.139Z,46.32
2019-05-09T09:07:09.787Z,46.01
2019-05-09T09:09:39.435Z,46.52
2019-05-09T09:12:24.756Z,46.45
2019-05-09T09:14:39.642Z,46.55
2019-05-09T09:17:09.179Z,46.62
2019-05-09T09:19:38.895Z,47.05
2019-05-09T09:22:08.825Z,47.05
2019-05-09T09:24:38.365Z,46.81
2019-05-09T09:27:08.152Z,46.68
2019-05-09T09:29:38.190Z,46.49
2019-05-09T09:32:08.491Z,46.44
2019-05-09T09:34:38.258Z,46.22
2019-05-09T09:37:11.186Z,46.29
2019-05-09T09:39:44.307Z,46.00
2019-05-09T09:42:09.945Z,45.78
2019-05-09T09:44:39.633Z,45.59
2019-05-09T09:47:08.973Z,45.60
2019-05-09T09:49:38.854Z,45.19
2019-05-09T09:52:08.861Z,44.69
2019-05-09T09:54:38.776Z,44.59
2019-05-09T09:57:09.816Z,44.60
2019-05-09T09:59:44.179Z,44.57
2019-05-09T10:02:14.766Z,44.58
2019-05-09T10:04:44.894Z,44.69
2019-05-09T10:07:14.465Z,44.36
2019-05-09T10:09:44.029Z,44.42
2019-05-09T10:12:13.259Z,44.26
2019-05-09T10:14:46.623Z,44.32
2019-05-09T10:17:40.260Z,43.53
2019-05-09T10:20:18.403Z,43.35
2019-05-09T10:22:58.536Z,43.11
2019-05-09T10:25:18.991Z,43.14
2019-05-09T10:27:48.703Z,42.76
2019-05-09T10:30:19.662Z,42.83
2019-05-09T10:32:49.098Z,42.74
2019-05-09T10:35:24.040Z,42.98
2019-05-09T10:37:53.803Z,43.10
2019-05-09T10:40:23.643Z,43.06
2019-05-09T10:43:08.333Z,43.25
2019-05-09T10:45:57.836Z,43.31
2019-05-09T10:48:28.341Z,43.65
2019-05-09T10:51:04.060Z,43.77
2019-05-09T10:53:28.820Z,43.82
2019-05-09T10:55:58.423Z,43.70
2019-05-09T10:58:28.043Z,43.59
2019-05-09T11:00:58.754Z,43.69
2019-05-09T11:03:28.465Z,43.33
2019-05-09T11:05:58.055Z,43.00
2019-05-09T11:08:28.638Z,42.91
2019-05-09T11:10:58.157Z,42.81
2019-05-09T11:13:28.721Z,42.46
2019-05-09T11:15:58.545Z,42.46
2019-05-09T11:18:28.701Z,42.04
2019-05-09T11:20:58.287Z,41.68
2019-05-09T11:23:29.215Z,40.98
2019-05-09T11:25:59.072Z,40.37
2019-05-09T11:28:28.619Z,40.00
2019-05-09T11:30:58.499Z,38.81
2019-05-09T11:33:27.990Z,38.34
2019-05-09T11:35:58.066Z,38.28
2019-05-09T11:38:34.744Z,37.64
2019-05-09T11:40:59.275Z,37.37
2019-05-09T11:43:29.915Z,37.05
2019-05-09T11:45:59.324Z,36.76
2019-05-09T11:48:28.718Z,36.25
2019-05-09T11:50:58.826Z,35.78
2019-05-09T11:53:29.050Z,35.23
2019-05-09T11:55:58.300Z,34.55
2019-05-09T11:58:28.088Z,34.35
2019-05-09T12:00:57.643Z,33.64
2019-05-09T12:03:26.909Z,32.87
2019-05-09T12:05:58.188Z,32.04
2019-05-09T12:08:27.316Z,31.47
2019-05-09T12:10:57.927Z,31.40
2019-05-09T12:13:27.370Z,31.57
2019-05-09T12:15:58.451Z,31.33
2019-05-09T12:18:28.567Z,30.30
2019-05-09T12:20:58.209Z,30.51
2019-05-09T12:23:29.126Z,30.21
2019-05-09T12:25:58.589Z,30.64
2019-05-09T12:28:28.013Z,30.70
2019-05-09T12:30:57.202Z,30.80
2019-05-09T12:33:28.420Z,31.40
2019-05-09T12:35:59.313Z,31.85
2019-05-09T12:38:29.039Z,32.29
2019-05-09T12:41:00.902Z,32.51
2019-05-09T12:43:30.190Z,32.50
2019-05-09T12:45:59.500Z,32.32
2019-05-09T12:48:28.945Z,32.27
2019-05-09T12:50:58.976Z,32.32
2019-05-09T12:53:28.476Z,32.20
2019-05-09T12:56:01.174Z,32.46
2019-05-09T12:58:30.931Z,32.54
2019-05-09T13:01:00.571Z,32.50
2019-05-09T13:03:30.905Z,32.22
2019-05-09T13:06:00.141Z,32.12
2019-05-09T13:08:29.555Z,31.85
2019-05-09T13:11:02.338Z,31.87
2019-05-09T13:13:32.198Z,31.83
2019-05-09T13:16:14.140Z,31.43
2019-05-09T13:19:02.436Z,31.49
2019-05-09T13:21:32.775Z,31.54
2019-05-09T13:24:02.517Z,31.31
2019-05-09T13:26:31.905Z,31.19
2019-05-09T13:29:01.221Z,30.96
2019-05-09T13:31:30.561Z,30.74
2019-05-09T13:34:00.036Z,30.86
2019-05-09T13:36:29.417Z,30.99
2019-05-09T13:39:04.649Z,30.87
2019-05-09T13:41:29.879Z,30.75
2019-05-09T13:44:05.306Z,30.63
2019-05-09T13:46:30.055Z,30.80
2019-05-09T13:49:11.415Z,31.08
2019-05-09T13:51:33.122Z,31.33
2019-05-09T13:54:02.618Z,31.41
2019-05-09T13:56:31.859Z,31.70
2019-05-09T13:59:01.131Z,32.16
2019-05-09T14:01:30.728Z,32.54
2019-05-09T14:03:59.966Z,32.87
2019-05-09T14:06:29.613Z,33.14
2019-05-09T14:08:59.873Z,33.03
2019-05-09T14:11:29.411Z,33.17
2019-05-09T14:13:58.671Z,33.15
2019-05-09T14:16:28.843Z,33.14
2019-05-09T14:19:04.044Z,33.34
2019-05-09T14:21:29.932Z,33.29
2019-05-09T14:24:10.916Z,33.36
2019-05-09T14:26:31.179Z,33.60
2019-05-09T14:29:00.512Z,33.82
2019-05-09T14:31:32.397Z,33.81
2019-05-09T14:34:00.812Z,33.89
2019-05-09T14:36:30.085Z,33.91
2019-05-09T14:38:59.412Z,33.97
2019-05-09T14:41:28.804Z,34.02
2019-05-09T14:43:59.876Z,33.79
2019-05-09T14:46:29.320Z,33.94
2019-05-09T14:48:59.214Z,34.09
2019-05-09T14:51:28.659Z,34.19
2019-05-09T14:53:59.365Z,34.28
2019-05-09T14:56:29.460Z,34.41
2019-05-09T14:58:58.803Z,34.58
2019-05-09T15:01:28.865Z,34.70
2019-05-09T15:03:58.912Z,34.62
2019-05-09T15:06:28.482Z,34.98
2019-05-09T15:08:58.332Z,35.13
2019-05-09T15:11:28.530Z,35.15
2019-05-09T15:13:58.637Z,35.04
2019-05-09T15:16:28.436Z,35.10
2019-05-09T15:18:58.598Z,34.97
2019-05-09T15:21:28.205Z,34.72
2019-05-09T15:23:58.940Z,34.85
2019-05-09T15:26:28.736Z,34.68
2019-05-09T15:28:58.086Z,34.39
2019-05-09T15:31:28.604Z,34.29
2019-05-09T15:33:58.193Z,34.46
2019-05-09T15:36:27.467Z,33.99
2019-05-09T15:38:58.951Z,33.43
2019-05-09T15:41:27.875Z,33.47
2019-05-09T15:43:57.963Z,33.25
2019-05-09T15:46:33.464Z,33.25
2019-05-09T15:49:02.800Z,32.94
2019-05-09T15:51:32.310Z,32.98
2019-05-09T15:54:01.895Z,33.01
2019-05-09T15:56:31.278Z,32.67
2019-05-09T15:59:00.540Z,32.58
2019-05-09T16:01:29.957Z,32.43
2019-05-09T16:03:59.223Z,32.65
2019-05-09T16:06:33.037Z,32.56
2019-05-09T16:08:59.738Z,32.29
2019-05-09T16:11:29.125Z,31.68
2019-05-09T16:13:58.521Z,31.25
2019-05-09T16:16:28.645Z,31.21
2019-05-09T16:18:58.437Z,30.92
2019-05-09T16:21:28.000Z,30.54
2019-05-09T16:23:59.235Z,30.36
2019-05-09T16:26:40.050Z,30.41
2019-05-09T16:29:09.521Z,30.09
2019-05-09T16:31:39.117Z,30.04
2019-05-09T16:34:09.347Z,30.04
2019-05-09T16:36:39.226Z,30.11
2019-05-09T16:39:08.648Z,29.92
2019-05-09T16:41:39.321Z,29.56
2019-05-09T16:44:08.895Z,29.98
2019-05-09T16:46:38.190Z,31.02
2019-05-09T16:49:11.589Z,31.83
2019-05-09T16:51:40.576Z,32.67
2019-05-09T16:54:09.589Z,33.06
2019-05-09T16:56:39.004Z,33.30
2019-05-09T16:59:08.508Z,33.57
2019-05-09T17:01:40.398Z,33.87
2019-05-09T17:04:15.421Z,33.64
2019-05-09T17:06:44.967Z,33.21
2019-05-09T17:09:14.193Z,32.90
2019-05-09T17:11:43.500Z,33.03
2019-05-09T17:14:12.945Z,33.60
2019-05-09T17:16:42.162Z,33.92
2019-05-09T17:19:11.463Z,34.41
2019-05-09T17:21:49.769Z,35.09
2019-05-09T17:24:19.623Z,35.54
2019-05-09T17:26:49.066Z,36.20
2019-05-09T17:29:18.757Z,36.86
2019-05-09T17:31:48.765Z,37.51
2019-05-09T17:34:18.318Z,38.14
2019-05-09T17:36:47.590Z,38.66
2019-05-09T17:39:18.617Z,38.99
2019-05-09T17:41:48.188Z,39.40
2019-05-09T17:44:18.626Z,39.80
2019-05-09T17:46:48.211Z,40.23
2019-05-09T17:49:17.725Z,40.54
2019-05-09T17:51:48.251Z,40.81
2019-05-09T17:54:18.359Z,41.02
2019-05-09T17:56:48.416Z,41.30
2019-05-09T17:59:18.593Z,41.53
2019-05-09T18:01:48.613Z,41.73
2019-05-09T18:04:18.184Z,41.99
2019-05-09T18:06:49.038Z,42.33
2019-05-09T18:09:19.137Z,42.67
2019-05-09T18:11:49.828Z,43.14
2019-05-09T18:14:19.049Z,43.48
2019-05-09T18:16:48.713Z,43.84
2019-05-09T18:19:18.058Z,44.17
2019-05-09T18:21:51.073Z,44.56
2019-05-09T18:24:18.470Z,44.86
2019-05-09T18:26:47.937Z,45.18
2019-05-09T18:29:18.202Z,45.47
2019-05-09T18:32:10.604Z,45.77
2019-05-09T18:34:39.857Z,46.07
2019-05-09T18:37:09.257Z,46.17
2019-05-09T18:39:39.551Z,46.48
2019-05-09T18:42:09.096Z,46.71
2019-05-09T18:44:38.377Z,46.97
2019-05-09T18:47:08.080Z,47.21
2019-05-09T18:49:37.436Z,47.53
2019-05-09T18:52:06.925Z,47.88
2019-05-09T18:54:36.469Z,48.17
2019-05-09T18:57:05.805Z,48.42
2019-05-09T18:59:35.021Z,48.65
2019-05-09T19:02:04.487Z,48.92
2019-05-09T19:04:33.721Z,49.16
2019-05-09T19:07:03.016Z,49.34
2019-05-09T19:09:32.446Z,49.54
2019-05-09T19:12:01.677Z,49.83
2019-05-09T19:14:31.212Z,50.02
2019-05-09T19:17:20.086Z,50.27
2019-05-09T19:20:01.151Z,50.39
2019-05-09T19:22:30.570Z,50.38
2019-05-09T19:24:59.919Z,50.54
2019-05-09T19:27:29.129Z,50.82
2019-05-09T19:29:58.599Z,50.97
2019-05-09T19:32:27.826Z,51.17
2019-05-09T19:34:57.491Z,51.34
2019-05-09T19:37:26.919Z,51.56
2019-05-09T19:39:56.135Z,51.82
2019-05-09T19:42:25.456Z,52.01
2019-05-09T19:44:54.813Z,52.27
2019-05-09T19:47:24.077Z,52.40
2019-05-09T19:49:53.542Z,52.61
2019-05-09T19:52:37.285Z,52.81
2019-05-09T19:54:55.906Z,53.00
2019-05-09T19:57:26.001Z,53.20
2019-05-09T19:59:56.261Z,53.41
2019-05-09T20:02:25.492Z,53.61
2019-05-09T20:04:55.780Z,53.76
2019-05-09T20:07:25.143Z,53.85
2019-05-09T20:10:04.473Z,54.04
2019-05-09T20:12:40.646Z,54.11
2019-05-09T20:15:12.111Z,54.14
2019-05-09T20:17:41.470Z,54.35
2019-05-09T20:20:10.715Z,54.52
2019-05-09T20:22:52.042Z,54.68
2019-05-09T20:25:11.685Z,54.86
2019-05-09T20:27:41.181Z,54.99
2019-05-09T20:30:12.234Z,55.15
2019-05-09T20:32:41.493Z,55.29
2019-05-09T20:35:10.920Z,55.44
2019-05-09T20:37:40.687Z,55.54
2019-05-09T20:40:10.636Z,55.72
2019-05-09T20:42:40.576Z,55.93
2019-05-09T20:45:19.492Z,56.02
2019-05-09T20:47:49.461Z,56.16
2019-05-09T20:50:19.361Z,56.19
2019-05-09T20:52:48.783Z,56.38
2019-05-09T20:55:18.589Z,56.53
2019-05-09T20:57:51.684Z,56.71
2019-05-09T21:00:19.531Z,56.84
2019-05-09T21:02:49.043Z,56.78
2019-05-09T21:05:18.456Z,57.09
2019-05-09T21:07:47.959Z,57.25
2019-05-09T21:10:18.112Z,57.34
2019-05-09T21:12:47.622Z,57.46
2019-05-09T21:15:17.133Z,57.48
2019-05-09T21:17:46.681Z,57.57
2019-05-09T21:20:16.082Z,57.61
2019-05-09T21:22:46.204Z,57.77
2019-05-09T21:25:15.795Z,57.80
2019-05-09T21:27:45.235Z,57.86
2019-05-09T21:30:15.003Z,57.96
2019-05-09T21:32:44.520Z,58.16
2019-05-09T21:35:13.954Z,58.27
2019-05-09T21:37:45.924Z,58.35
2019-05-09T21:40:15.350Z,58.46
2019-05-09T21:42:44.568Z,58.62
2019-05-09T21:45:14.188Z,58.77
2019-05-09T21:47:43.497Z,58.89
2019-05-09T21:50:13.048Z,59.03
2019-05-09T21:52:42.600Z,59.15
2019-05-09T21:55:11.888Z,59.28
2019-05-09T21:57:42.017Z,59.37
2019-05-09T22:00:15.874Z,59.41
2019-05-09T22:02:45.191Z,59.61
2019-05-09T22:05:14.410Z,59.70
2019-05-09T22:07:44.139Z,59.82
2019-05-09T22:10:13.561Z,59.88
2019-05-09T22:12:43.028Z,59.90
2019-05-09T22:15:12.501Z,60.04
2019-05-09T22:17:41.759Z,60.10
2019-05-09T22:20:13.810Z,60.22
2019-05-09T22:22:43.065Z,60.32
2019-05-09T22:25:12.913Z,60.31
2019-05-09T22:27:42.323Z,60.35
2019-05-09T22:30:13.094Z,60.48
2019-05-09T22:32:42.422Z,60.57
2019-05-09T22:35:13.918Z,60.62
2019-05-09T22:37:43.401Z,60.74
2019-05-09T22:40:13.132Z,60.77
2019-05-09T22:42:42.728Z,60.89
2019-05-09T22:45:13.179Z,60.91
2019-05-09T22:47:42.547Z,61.05
2019-05-09T22:50:11.978Z,61.12
2019-05-09T22:52:41.271Z,61.19
2019-05-09T22:55:10.507Z,61.17
2019-05-09T22:57:39.962Z,61.29
2019-05-09T23:00:09.542Z,61.39
2019-05-09T23:02:41.836Z,61.43
2019-05-09T23:05:11.171Z,61.47
2019-05-09T23:07:40.741Z,61.63
2019-05-09T23:10:10.360Z,61.70
2019-05-09T23:12:39.560Z,61.83
2019-05-09T23:15:11.031Z,61.95
2019-05-09T23:17:40.277Z,62.00
2019-05-09T23:20:16.439Z,62.08
2019-05-09T23:22:45.836Z,62.16
2019-05-09T23:25:15.044Z,62.21
2019-05-09T23:27:44.516Z,62.35
2019-05-09T23:30:14.803Z,62.47
2019-05-09T23:32:45.628Z,62.62
2019-05-09T23:35:14.889Z,62.70
2019-05-09T23:37:44.097Z,62.73
2019-05-09T23:40:13.405Z,62.79
2019-05-09T23:42:42.670Z,62.83
2019-05-09T23:45:12.016Z,62.98
2019-05-09T23:47:41.434Z,63.10
2019-05-09T23:50:10.786Z,63.19
2019-05-09T23:52:40.004Z,63.29
2019-05-09T23:55:27.554Z,63.33
2019-05-09T23:58:14.441Z,63.41
